sensor_id;sensor_type;location;lat;lon;timestamp;pressure;altitude;pressure_sealevel;temperature;humidity
80699;BME280;70062;51.658;5.658;2023-07-31T00:02:14;100900.46;;;16.71;86.50
80699;BME280;70062;51.658;5.658;2023-07-31T00:04:40;100898.92;;;16.72;86.42
80699;BME280;70062;51.658;5.658;2023-07-31T00:07:05;100897.05;;;16.73;86.40
80699;BME280;70062;51.658;5.658;2023-07-31T00:09:32;100895.85;;;16.73;86.28
80699;BME280;70062;51.658;5.658;2023-07-31T00:11:57;100900.38;;;16.74;86.22
80699;BME280;70062;51.658;5.658;2023-07-31T00:14:23;100894.64;;;16.74;86.25
80699;BME280;70062;51.658;5.658;2023-07-31T00:16:49;100898.45;;;16.74;86.16
80699;BME280;70062;51.658;5.658;2023-07-31T00:19:14;100892.88;;;16.72;86.10
80699;BME280;70062;51.658;5.658;2023-07-31T00:21:39;100893.75;;;16.73;86.06
80699;BME280;70062;51.658;5.658;2023-07-31T00:24:05;100892.40;;;16.74;86.02
80699;BME280;70062;51.658;5.658;2023-07-31T00:26:30;100892.79;;;16.76;85.96
80699;BME280;70062;51.658;5.658;2023-07-31T00:28:55;100891.98;;;16.78;85.99
80699;BME280;70062;51.658;5.658;2023-07-31T00:31:21;100886.27;;;16.78;85.84
80699;BME280;70062;51.658;5.658;2023-07-31T00:33:46;100887.81;;;16.78;85.85
80699;BME280;70062;51.658;5.658;2023-07-31T00:36:11;100890.44;;;16.79;85.70
80699;BME280;70062;51.658;5.658;2023-07-31T00:38:37;100883.16;;;16.79;85.66
80699;BME280;70062;51.658;5.658;2023-07-31T00:41:02;100884.73;;;16.79;85.53
80699;BME280;70062;51.658;5.658;2023-07-31T00:43:27;100879.17;;;16.79;85.59
80699;BME280;70062;51.658;5.658;2023-07-31T00:45:53;100878.48;;;16.78;85.55
80699;BME280;70062;51.658;5.658;2023-07-31T00:48:18;100885.39;;;16.78;85.51
80699;BME280;70062;51.658;5.658;2023-07-31T00:50:44;100892.16;;;16.78;85.45
80699;BME280;70062;51.658;5.658;2023-07-31T00:53:11;100888.00;;;16.78;85.44
80699;BME280;70062;51.658;5.658;2023-07-31T00:55:37;100883.84;;;16.78;85.34
80699;BME280;70062;51.658;5.658;2023-07-31T00:58:03;100882.60;;;16.77;85.13
80699;BME280;70062;51.658;5.658;2023-07-31T01:00:28;100879.32;;;16.78;85.36
80699;BME280;70062;51.658;5.658;2023-07-31T01:02:53;100871.89;;;16.79;85.29
80699;BME280;70062;51.658;5.658;2023-07-31T01:05:23;100875.70;;;16.79;85.10
80699;BME280;70062;51.658;5.658;2023-07-31T01:08:04;100874.66;;;16.79;85.15
80699;BME280;70062;51.658;5.658;2023-07-31T01:10:38;100868.60;;;16.79;84.95
80699;BME280;70062;51.658;5.658;2023-07-31T01:13:07;100868.42;;;16.79;84.98
80699;BME280;70062;51.658;5.658;2023-07-31T01:15:33;100871.22;;;16.80;84.90
80699;BME280;70062;51.658;5.658;2023-07-31T01:17:58;100870.19;;;16.80;84.77
80699;BME280;70062;51.658;5.658;2023-07-31T01:20:26;100867.04;;;16.79;84.82
80699;BME280;70062;51.658;5.658;2023-07-31T01:28:56;100871.59;;;16.81;84.66
80699;BME280;70062;51.658;5.658;2023-07-31T01:31:26;100867.59;;;16.80;84.57
80699;BME280;70062;51.658;5.658;2023-07-31T01:33:54;100867.60;;;16.81;84.67
80699;BME280;70062;51.658;5.658;2023-07-31T01:36:20;100871.11;;;16.82;84.53
80699;BME280;70062;51.658;5.658;2023-07-31T01:38:45;100862.77;;;16.82;84.36
80699;BME280;70062;51.658;5.658;2023-07-31T01:41:11;100865.02;;;16.81;84.33
80699;BME280;70062;51.658;5.658;2023-07-31T01:43:36;100865.30;;;16.79;84.21
80699;BME280;70062;51.658;5.658;2023-07-31T01:46:01;100861.66;;;16.78;84.15
80699;BME280;70062;51.658;5.658;2023-07-31T01:48:27;100860.42;;;16.78;84.10
80699;BME280;70062;51.658;5.658;2023-07-31T01:50:52;100864.42;;;16.78;84.11
80699;BME280;70062;51.658;5.658;2023-07-31T01:53:18;100858.56;;;16.79;83.93
80699;BME280;70062;51.658;5.658;2023-07-31T01:55:43;100855.62;;;16.80;83.87
80699;BME280;70062;51.658;5.658;2023-07-31T01:58:09;100857.02;;;16.81;83.58
80699;BME280;70062;51.658;5.658;2023-07-31T02:00:34;100852.88;;;16.81;83.54
80699;BME280;70062;51.658;5.658;2023-07-31T02:03:00;100848.39;;;16.82;83.47
80699;BME280;70062;51.658;5.658;2023-07-31T02:05:25;100842.67;;;16.82;83.16
80699;BME280;70062;51.658;5.658;2023-07-31T02:07:51;100844.20;;;16.81;83.15
80699;BME280;70062;51.658;5.658;2023-07-31T02:10:16;100846.09;;;16.80;83.07
80699;BME280;70062;51.658;5.658;2023-07-31T02:12:42;100845.73;;;16.80;82.88
80699;BME280;70062;51.658;5.658;2023-07-31T02:15:07;100843.85;;;16.81;82.75
80699;BME280;70062;51.658;5.658;2023-07-31T02:17:33;100836.77;;;16.81;82.81
80699;BME280;70062;51.658;5.658;2023-07-31T02:19:58;100834.68;;;16.81;82.58
80699;BME280;70062;51.658;5.658;2023-07-31T02:22:23;100829.61;;;16.80;82.50
80699;BME280;70062;51.658;5.658;2023-07-31T02:24:49;100827.71;;;16.80;82.47
80699;BME280;70062;51.658;5.658;2023-07-31T02:27:14;100822.51;;;16.80;82.23
80699;BME280;70062;51.658;5.658;2023-07-31T02:29:39;100822.70;;;16.80;82.20
80699;BME280;70062;51.658;5.658;2023-07-31T02:32:05;100823.16;;;16.79;82.02
80699;BME280;70062;51.658;5.658;2023-07-31T02:34:30;100821.09;;;16.79;81.78
80699;BME280;70062;51.658;5.658;2023-07-31T02:36:56;100821.59;;;16.78;81.75
80699;BME280;70062;51.658;5.658;2023-07-31T02:39:21;100820.69;;;16.76;81.60
80699;BME280;70062;51.658;5.658;2023-07-31T02:41:47;100818.08;;;16.75;81.59
80699;BME280;70062;51.658;5.658;2023-07-31T02:44:13;100815.13;;;16.76;81.62
80699;BME280;70062;51.658;5.658;2023-07-31T02:46:39;100814.27;;;16.75;81.43
80699;BME280;70062;51.658;5.658;2023-07-31T02:49:05;100812.54;;;16.76;81.46
80699;BME280;70062;51.658;5.658;2023-07-31T02:51:30;100817.41;;;16.77;81.51
80699;BME280;70062;51.658;5.658;2023-07-31T02:53:56;100810.84;;;16.78;81.47
80699;BME280;70062;51.658;5.658;2023-07-31T02:56:21;100808.41;;;16.77;81.26
80699;BME280;70062;51.658;5.658;2023-07-31T02:58:46;100805.29;;;16.77;81.15
80699;BME280;70062;51.658;5.658;2023-07-31T03:01:12;100805.11;;;16.77;81.05
80699;BME280;70062;51.658;5.658;2023-07-31T03:03:37;100804.41;;;16.77;81.00
80699;BME280;70062;51.658;5.658;2023-07-31T03:06:03;100807.34;;;16.76;80.60
80699;BME280;70062;51.658;5.658;2023-07-31T03:08:28;100803.19;;;16.76;80.68
80699;BME280;70062;51.658;5.658;2023-07-31T03:10:53;100803.14;;;16.74;80.48
80699;BME280;70062;51.658;5.658;2023-07-31T03:13:19;100802.08;;;16.74;80.42
80699;BME280;70062;51.658;5.658;2023-07-31T03:15:44;100798.98;;;16.74;80.61
80699;BME280;70062;51.658;5.658;2023-07-31T03:18:09;100802.44;;;16.74;80.38
80699;BME280;70062;51.658;5.658;2023-07-31T03:20:35;100806.09;;;16.75;80.28
80699;BME280;70062;51.658;5.658;2023-07-31T03:23:00;100805.40;;;16.75;80.20
80699;BME280;70062;51.658;5.658;2023-07-31T03:25:25;100804.73;;;16.76;80.21
80699;BME280;70062;51.658;5.658;2023-07-31T03:27:51;100806.13;;;16.77;80.18
80699;BME280;70062;51.658;5.658;2023-07-31T03:30:16;100806.34;;;16.77;80.04
80699;BME280;70062;51.658;5.658;2023-07-31T03:32:42;100802.36;;;16.78;80.05
80699;BME280;70062;51.658;5.658;2023-07-31T03:35:07;100801.66;;;16.78;79.93
80699;BME280;70062;51.658;5.658;2023-07-31T03:37:33;100799.71;;;16.77;79.81
80699;BME280;70062;51.658;5.658;2023-07-31T03:39:58;100794.00;;;16.77;79.88
80699;BME280;70062;51.658;5.658;2023-07-31T03:42:24;100790.33;;;16.75;79.78
80699;BME280;70062;51.658;5.658;2023-07-31T03:44:49;100783.87;;;16.73;79.78
80699;BME280;70062;51.658;5.658;2023-07-31T03:47:15;100778.17;;;16.74;79.86
80699;BME280;70062;51.658;5.658;2023-07-31T03:49:40;100777.16;;;16.75;79.92
80699;BME280;70062;51.658;5.658;2023-07-31T03:52:06;100777.86;;;16.76;79.93
80699;BME280;70062;51.658;5.658;2023-07-31T03:54:31;100779.09;;;16.76;79.54
80699;BME280;70062;51.658;5.658;2023-07-31T03:56:57;100779.94;;;16.75;79.69
80699;BME280;70062;51.658;5.658;2023-07-31T03:59:22;100776.28;;;16.75;79.83
80699;BME280;70062;51.658;5.658;2023-07-31T04:01:48;100770.27;;;16.77;79.81
80699;BME280;70062;51.658;5.658;2023-07-31T04:04:13;100772.37;;;16.78;79.90
80699;BME280;70062;51.658;5.658;2023-07-31T04:06:39;100765.11;;;16.79;79.84
80699;BME280;70062;51.658;5.658;2023-07-31T04:09:04;100762.52;;;16.79;79.64
80699;BME280;70062;51.658;5.658;2023-07-31T04:11:30;100762.36;;;16.80;79.69
80699;BME280;70062;51.658;5.658;2023-07-31T04:13:55;100758.73;;;16.81;79.50
80699;BME280;70062;51.658;5.658;2023-07-31T04:16:20;100760.15;;;16.82;79.60
80699;BME280;70062;51.658;5.658;2023-07-31T04:18:46;100760.52;;;16.83;79.67
80699;BME280;70062;51.658;5.658;2023-07-31T04:21:11;100751.73;;;16.85;79.64
80699;BME280;70062;51.658;5.658;2023-07-31T04:23:37;100753.89;;;16.89;79.75
80699;BME280;70062;51.658;5.658;2023-07-31T04:26:02;100752.90;;;16.91;79.59
80699;BME280;70062;51.658;5.658;2023-07-31T04:28:28;100754.02;;;16.94;79.61
80699;BME280;70062;51.658;5.658;2023-07-31T04:30:53;100752.16;;;16.97;79.36
80699;BME280;70062;51.658;5.658;2023-07-31T04:33:18;100749.13;;;17.01;79.54
80699;BME280;70062;51.658;5.658;2023-07-31T04:35:52;100748.33;;;17.05;79.62
80699;BME280;70062;51.658;5.658;2023-07-31T04:38:22;100748.95;;;17.10;79.33
80699;BME280;70062;51.658;5.658;2023-07-31T04:40:47;100744.35;;;17.13;79.53
80699;BME280;70062;51.658;5.658;2023-07-31T04:43:13;100744.95;;;17.17;79.52
80699;BME280;70062;51.658;5.658;2023-07-31T04:45:38;100743.10;;;17.20;79.51
80699;BME280;70062;51.658;5.658;2023-07-31T04:48:04;100741.42;;;17.23;79.45
80699;BME280;70062;51.658;5.658;2023-07-31T04:50:29;100736.80;;;17.26;79.56
80699;BME280;70062;51.658;5.658;2023-07-31T04:52:56;100737.40;;;17.30;79.47
80699;BME280;70062;51.658;5.658;2023-07-31T04:55:21;100734.15;;;17.32;79.47
80699;BME280;70062;51.658;5.658;2023-07-31T04:57:46;100729.20;;;17.35;79.58
80699;BME280;70062;51.658;5.658;2023-07-31T05:00:12;100731.95;;;17.34;79.77
80699;BME280;70062;51.658;5.658;2023-07-31T05:02:37;100727.65;;;17.36;79.91
80699;BME280;70062;51.658;5.658;2023-07-31T05:05:03;100727.98;;;17.34;79.81
80699;BME280;70062;51.658;5.658;2023-07-31T05:07:28;100721.02;;;17.34;79.89
80699;BME280;70062;51.658;5.658;2023-07-31T05:09:53;100715.32;;;17.35;79.95
80699;BME280;70062;51.658;5.658;2023-07-31T05:12:19;100709.10;;;17.36;79.91
80699;BME280;70062;51.658;5.658;2023-07-31T05:14:44;100709.51;;;17.39;80.03
80699;BME280;70062;51.658;5.658;2023-07-31T05:17:09;100705.92;;;17.43;79.92
80699;BME280;70062;51.658;5.658;2023-07-31T05:19:35;100705.30;;;17.46;79.99
80699;BME280;70062;51.658;5.658;2023-07-31T05:22:00;100699.77;;;17.47;80.14
80699;BME280;70062;51.658;5.658;2023-07-31T05:24:25;100699.45;;;17.49;80.33
80699;BME280;70062;51.658;5.658;2023-07-31T05:26:51;100694.45;;;17.51;80.55
80699;BME280;70062;51.658;5.658;2023-07-31T05:29:16;100695.53;;;17.53;80.73
80699;BME280;70062;51.658;5.658;2023-07-31T05:31:41;100691.86;;;17.51;80.88
80699;BME280;70062;51.658;5.658;2023-07-31T05:34:07;100695.06;;;17.46;81.35
80699;BME280;70062;51.658;5.658;2023-07-31T05:36:32;100693.27;;;17.43;81.50
80699;BME280;70062;51.658;5.658;2023-07-31T05:38:58;100685.89;;;17.38;81.70
80699;BME280;70062;51.658;5.658;2023-07-31T05:41:23;100685.48;;;17.35;81.81
80699;BME280;70062;51.658;5.658;2023-07-31T05:43:48;100678.10;;;17.32;82.00
80699;BME280;70062;51.658;5.658;2023-07-31T05:46:14;100682.61;;;17.31;82.30
80699;BME280;70062;51.658;5.658;2023-07-31T05:48:39;100681.71;;;17.30;82.24
80699;BME280;70062;51.658;5.658;2023-07-31T05:51:04;100683.90;;;17.27;82.61
80699;BME280;70062;51.658;5.658;2023-07-31T05:53:30;100681.73;;;17.22;82.83
80699;BME280;70062;51.658;5.658;2023-07-31T05:55:55;100675.38;;;17.16;83.27
80699;BME280;70062;51.658;5.658;2023-07-31T05:58:21;100672.19;;;17.13;83.61
80699;BME280;70062;51.658;5.658;2023-07-31T06:00:46;100671.98;;;17.11;83.78
80699;BME280;70062;51.658;5.658;2023-07-31T06:03:12;100664.85;;;17.10;83.99
80699;BME280;70062;51.658;5.658;2023-07-31T06:05:37;100663.80;;;17.10;84.18
80699;BME280;70062;51.658;5.658;2023-07-31T06:08:02;100664.49;;;17.10;84.28
80699;BME280;70062;51.658;5.658;2023-07-31T06:10:28;100664.96;;;17.07;84.36
80699;BME280;70062;51.658;5.658;2023-07-31T06:12:53;100663.50;;;17.03;84.55
80699;BME280;70062;51.658;5.658;2023-07-31T06:15:19;100659.52;;;17.03;84.55
80699;BME280;70062;51.658;5.658;2023-07-31T06:17:45;100659.02;;;17.05;84.89
80699;BME280;70062;51.658;5.658;2023-07-31T06:20:10;100659.34;;;17.03;84.77
80699;BME280;70062;51.658;5.658;2023-07-31T06:22:36;100656.85;;;17.00;84.97
80699;BME280;70062;51.658;5.658;2023-07-31T06:25:01;100655.95;;;16.98;84.93
80699;BME280;70062;51.658;5.658;2023-07-31T06:27:27;100664.45;;;16.98;85.01
80699;BME280;70062;51.658;5.658;2023-07-31T06:29:52;100661.39;;;17.02;85.28
80699;BME280;70062;51.658;5.658;2023-07-31T06:32:18;100655.60;;;17.07;85.23
80699;BME280;70062;51.658;5.658;2023-07-31T06:34:43;100649.44;;;17.11;85.33
80699;BME280;70062;51.658;5.658;2023-07-31T06:37:09;100651.25;;;17.16;85.44
80699;BME280;70062;51.658;5.658;2023-07-31T06:39:34;100653.73;;;17.19;85.43
80699;BME280;70062;51.658;5.658;2023-07-31T06:41:59;100647.16;;;17.19;85.44
80699;BME280;70062;51.658;5.658;2023-07-31T06:44:25;100646.15;;;17.21;85.34
80699;BME280;70062;51.658;5.658;2023-07-31T06:46:50;100645.46;;;17.21;85.44
80699;BME280;70062;51.658;5.658;2023-07-31T06:49:16;100638.41;;;17.24;85.47
80699;BME280;70062;51.658;5.658;2023-07-31T06:51:41;100634.48;;;17.27;85.41
80699;BME280;70062;51.658;5.658;2023-07-31T06:54:08;100630.87;;;17.30;85.60
80699;BME280;70062;51.658;5.658;2023-07-31T06:56:33;100624.10;;;17.29;85.50
80699;BME280;70062;51.658;5.658;2023-07-31T06:58:59;100621.40;;;17.33;85.67
80699;BME280;70062;51.658;5.658;2023-07-31T07:01:24;100621.50;;;17.38;85.53
80699;BME280;70062;51.658;5.658;2023-07-31T07:03:49;100618.67;;;17.44;85.55
80699;BME280;70062;51.658;5.658;2023-07-31T07:06:16;100613.11;;;17.44;85.62
80699;BME280;70062;51.658;5.658;2023-07-31T07:08:42;100619.21;;;17.46;85.54
80699;BME280;70062;51.658;5.658;2023-07-31T07:11:07;100621.66;;;17.46;85.46
80699;BME280;70062;51.658;5.658;2023-07-31T07:13:33;100617.98;;;17.45;85.55
80699;BME280;70062;51.658;5.658;2023-07-31T07:15:58;100618.82;;;17.43;85.59
80699;BME280;70062;51.658;5.658;2023-07-31T07:18:24;100619.52;;;17.43;85.56
80699;BME280;70062;51.658;5.658;2023-07-31T07:20:50;100611.21;;;17.44;85.67
80699;BME280;70062;51.658;5.658;2023-07-31T07:23:16;100610.63;;;17.50;85.57
80699;BME280;70062;51.658;5.658;2023-07-31T07:25:42;100607.64;;;17.58;85.65
80699;BME280;70062;51.658;5.658;2023-07-31T07:28:08;100604.29;;;17.65;85.50
80699;BME280;70062;51.658;5.658;2023-07-31T07:30:33;100601.30;;;17.73;85.19
80699;BME280;70062;51.658;5.658;2023-07-31T07:32:59;100603.14;;;17.79;85.15
80699;BME280;70062;51.658;5.658;2023-07-31T07:35:24;100600.11;;;17.86;85.18
80699;BME280;70062;51.658;5.658;2023-07-31T07:37:49;100601.24;;;17.91;85.09
80699;BME280;70062;51.658;5.658;2023-07-31T07:40:15;100600.97;;;17.96;84.92
80699;BME280;70062;51.658;5.658;2023-07-31T07:42:41;100603.35;;;18.04;84.64
80699;BME280;70062;51.658;5.658;2023-07-31T07:45:07;100611.09;;;18.11;84.44
80699;BME280;70062;51.658;5.658;2023-07-31T07:47:32;100605.49;;;18.08;84.30
80699;BME280;70062;51.658;5.658;2023-07-31T07:49:58;100605.30;;;18.07;84.29
80699;BME280;70062;51.658;5.658;2023-07-31T07:52:23;100600.20;;;18.03;84.11
80699;BME280;70062;51.658;5.658;2023-07-31T07:54:48;100603.44;;;17.99;84.15
80699;BME280;70062;51.658;5.658;2023-07-31T07:57:15;100602.33;;;17.93;84.33
80699;BME280;70062;51.658;5.658;2023-07-31T07:59:41;100605.96;;;17.93;84.49
80699;BME280;70062;51.658;5.658;2023-07-31T08:02:07;100601.78;;;17.91;84.47
80699;BME280;70062;51.658;5.658;2023-07-31T08:04:32;100597.71;;;17.87;84.40
80699;BME280;70062;51.658;5.658;2023-07-31T08:06:57;100604.06;;;17.83;84.37
80699;BME280;70062;51.658;5.658;2023-07-31T08:09:23;100601.62;;;17.81;84.45
80699;BME280;70062;51.658;5.658;2023-07-31T08:11:48;100600.61;;;17.84;84.39
80699;BME280;70062;51.658;5.658;2023-07-31T08:14:13;100596.45;;;17.84;84.51
80699;BME280;70062;51.658;5.658;2023-07-31T08:16:39;100597.74;;;17.78;84.39
80699;BME280;70062;51.658;5.658;2023-07-31T08:19:04;100595.27;;;17.76;84.52
80699;BME280;70062;51.658;5.658;2023-07-31T08:21:31;100593.20;;;17.76;84.41
80699;BME280;70062;51.658;5.658;2023-07-31T08:23:56;100591.36;;;17.81;84.62
80699;BME280;70062;51.658;5.658;2023-07-31T08:26:22;100592.58;;;17.92;84.83
80699;BME280;70062;51.658;5.658;2023-07-31T08:28:47;100593.56;;;18.00;84.31
80699;BME280;70062;51.658;5.658;2023-07-31T08:31:12;100593.45;;;18.16;84.02
80699;BME280;70062;51.658;5.658;2023-07-31T08:33:39;100585.82;;;18.30;83.77
80699;BME280;70062;51.658;5.658;2023-07-31T08:36:05;100586.44;;;18.38;83.77
80699;BME280;70062;51.658;5.658;2023-07-31T08:38:31;100591.77;;;18.34;83.68
80699;BME280;70062;51.658;5.658;2023-07-31T08:40:57;100585.43;;;18.27;83.63
80699;BME280;70062;51.658;5.658;2023-07-31T08:43:25;100583.33;;;18.26;83.99
80699;BME280;70062;51.658;5.658;2023-07-31T08:45:51;100589.42;;;18.26;83.93
80699;BME280;70062;51.658;5.658;2023-07-31T08:48:17;100586.33;;;18.29;83.79
80699;BME280;70062;51.658;5.658;2023-07-31T08:50:43;100584.02;;;18.25;83.89
80699;BME280;70062;51.658;5.658;2023-07-31T08:53:08;100589.75;;;18.25;84.32
80699;BME280;70062;51.658;5.658;2023-07-31T08:55:35;100591.17;;;18.28;83.90
80699;BME280;70062;51.658;5.658;2023-07-31T08:58:02;100591.71;;;18.29;83.82
80699;BME280;70062;51.658;5.658;2023-07-31T09:00:29;100592.23;;;18.27;83.98
80699;BME280;70062;51.658;5.658;2023-07-31T09:02:59;100586.76;;;18.22;83.87
80699;BME280;70062;51.658;5.658;2023-07-31T09:05:29;100593.31;;;18.19;84.00
80699;BME280;70062;51.658;5.658;2023-07-31T09:07:55;100597.07;;;18.15;83.91
80699;BME280;70062;51.658;5.658;2023-07-31T09:10:21;100592.38;;;18.14;84.00
80699;BME280;70062;51.658;5.658;2023-07-31T09:12:48;100588.41;;;18.16;83.75
80699;BME280;70062;51.658;5.658;2023-07-31T09:15:14;100588.20;;;18.14;83.96
80699;BME280;70062;51.658;5.658;2023-07-31T09:17:40;100587.23;;;18.06;84.08
80699;BME280;70062;51.658;5.658;2023-07-31T09:20:17;100587.27;;;18.09;84.47
80699;BME280;70062;51.658;5.658;2023-07-31T09:22:44;100584.85;;;18.10;83.99
80699;BME280;70062;51.658;5.658;2023-07-31T09:25:23;100585.87;;;18.08;84.06
80699;BME280;70062;51.658;5.658;2023-07-31T09:27:51;100586.61;;;18.11;83.96
80699;BME280;70062;51.658;5.658;2023-07-31T09:30:17;100582.48;;;18.15;83.85
80699;BME280;70062;51.658;5.658;2023-07-31T09:32:47;100576.84;;;18.21;83.83
80699;BME280;70062;51.658;5.658;2023-07-31T09:35:28;100574.33;;;18.29;83.69
80699;BME280;70062;51.658;5.658;2023-07-31T09:37:56;100565.42;;;18.39;83.42
80699;BME280;70062;51.658;5.658;2023-07-31T09:40:29;100562.54;;;18.43;83.23
80699;BME280;70062;51.658;5.658;2023-07-31T09:43:00;100561.23;;;18.51;83.03
80699;BME280;70062;51.658;5.658;2023-07-31T09:45:26;100563.58;;;18.58;82.60
80699;BME280;70062;51.658;5.658;2023-07-31T09:47:52;100554.42;;;18.61;82.48
80699;BME280;70062;51.658;5.658;2023-07-31T09:50:20;100551.98;;;18.60;82.13
80699;BME280;70062;51.658;5.658;2023-07-31T09:52:45;100553.62;;;18.66;82.15
80699;BME280;70062;51.658;5.658;2023-07-31T09:55:11;100557.02;;;18.76;82.07
80699;BME280;70062;51.658;5.658;2023-07-31T09:57:40;100560.14;;;18.89;81.58
80699;BME280;70062;51.658;5.658;2023-07-31T10:00:08;100560.16;;;19.07;81.97
80699;BME280;70062;51.658;5.658;2023-07-31T10:02:36;100556.49;;;19.23;81.62
80699;BME280;70062;51.658;5.658;2023-07-31T10:05:03;100562.88;;;19.37;80.91
80699;BME280;70062;51.658;5.658;2023-07-31T10:07:30;100560.00;;;19.46;80.32
80699;BME280;70062;51.658;5.658;2023-07-31T10:09:58;100558.81;;;19.49;79.69
80699;BME280;70062;51.658;5.658;2023-07-31T10:12:26;100555.59;;;19.56;79.13
80699;BME280;70062;51.658;5.658;2023-07-31T10:14:54;100554.08;;;19.65;79.18
80699;BME280;70062;51.658;5.658;2023-07-31T10:17:22;100554.36;;;19.78;79.06
80699;BME280;70062;51.658;5.658;2023-07-31T10:19:49;100553.07;;;19.95;78.75
80699;BME280;70062;51.658;5.658;2023-07-31T10:22:15;100555.95;;;20.10;77.76
80699;BME280;70062;51.658;5.658;2023-07-31T10:24:42;100557.55;;;20.17;77.20
80699;BME280;70062;51.658;5.658;2023-07-31T10:27:09;100553.72;;;20.17;77.11
80699;BME280;70062;51.658;5.658;2023-07-31T10:29:35;100547.28;;;20.20;76.85
80699;BME280;70062;51.658;5.658;2023-07-31T10:32:01;100544.23;;;20.35;76.50
80699;BME280;70062;51.658;5.658;2023-07-31T10:34:27;100541.37;;;20.60;75.77
80699;BME280;70062;51.658;5.658;2023-07-31T10:37:28;100536.95;;;20.92;74.80
80699;BME280;70062;51.658;5.658;2023-07-31T10:40:02;100537.65;;;20.96;74.08
80699;BME280;70062;51.658;5.658;2023-07-31T10:42:34;100538.86;;;20.91;74.03
80699;BME280;70062;51.658;5.658;2023-07-31T10:45:09;100536.58;;;20.82;73.60
80699;BME280;70062;51.658;5.658;2023-07-31T10:47:44;100543.84;;;20.72;74.23
80699;BME280;70062;51.658;5.658;2023-07-31T10:52:38;100535.27;;;20.60;74.06
80699;BME280;70062;51.658;5.658;2023-07-31T10:55:42;100544.35;;;20.65;74.19
80699;BME280;70062;51.658;5.658;2023-07-31T10:58:13;100537.56;;;20.70;74.44
80699;BME280;70062;51.658;5.658;2023-07-31T11:00:40;100540.36;;;20.70;74.43
80699;BME280;70062;51.658;5.658;2023-07-31T11:03:16;100534.56;;;20.60;74.29
80699;BME280;70062;51.658;5.658;2023-07-31T11:05:52;100534.20;;;20.49;74.32
80699;BME280;70062;51.658;5.658;2023-07-31T11:08:24;100530.16;;;20.44;74.16
80699;BME280;70062;51.658;5.658;2023-07-31T11:11:13;100532.04;;;20.38;74.25
80699;BME280;70062;51.658;5.658;2023-07-31T11:13:49;100532.88;;;20.34;74.43
80699;BME280;70062;51.658;5.658;2023-07-31T11:16:15;100538.98;;;20.34;74.24
80699;BME280;70062;51.658;5.658;2023-07-31T11:18:42;100535.91;;;20.45;74.37
80699;BME280;70062;51.658;5.658;2023-07-31T11:21:12;100536.86;;;20.70;73.91
80699;BME280;70062;51.658;5.658;2023-07-31T11:23:38;100532.96;;;21.06;73.06
80699;BME280;70062;51.658;5.658;2023-07-31T11:26:05;100532.30;;;21.51;72.37
80699;BME280;70062;51.658;5.658;2023-07-31T11:28:34;100530.52;;;21.82;71.07
80699;BME280;70062;51.658;5.658;2023-07-31T11:31:01;100529.44;;;21.93;70.42
80699;BME280;70062;51.658;5.658;2023-07-31T11:33:27;100528.73;;;22.04;69.63
80699;BME280;70062;51.658;5.658;2023-07-31T11:35:52;100526.74;;;22.25;69.21
80699;BME280;70062;51.658;5.658;2023-07-31T11:38:26;100518.23;;;22.49;68.41
80699;BME280;70062;51.658;5.658;2023-07-31T11:40:57;100512.28;;;22.57;67.33
80699;BME280;70062;51.658;5.658;2023-07-31T11:43:23;100518.05;;;22.58;67.35
80699;BME280;70062;51.658;5.658;2023-07-31T11:45:52;100518.92;;;22.59;67.16
80699;BME280;70062;51.658;5.658;2023-07-31T11:48:19;100519.85;;;22.41;67.41
80699;BME280;70062;51.658;5.658;2023-07-31T11:50:47;100520.64;;;22.20;67.71
80699;BME280;70062;51.658;5.658;2023-07-31T11:53:15;100512.65;;;22.04;68.36
80699;BME280;70062;51.658;5.658;2023-07-31T11:55:42;100511.27;;;21.91;68.62
80699;BME280;70062;51.658;5.658;2023-07-31T11:58:08;100515.46;;;21.89;68.86
80699;BME280;70062;51.658;5.658;2023-07-31T12:00:33;100507.58;;;21.95;68.19
80699;BME280;70062;51.658;5.658;2023-07-31T12:02:59;100509.00;;;21.89;68.61
80699;BME280;70062;51.658;5.658;2023-07-31T12:05:24;100508.14;;;21.85;68.87
80699;BME280;70062;51.658;5.658;2023-07-31T12:07:52;100509.02;;;21.80;69.12
80699;BME280;70062;51.658;5.658;2023-07-31T12:10:31;100509.71;;;21.83;69.34
80699;BME280;70062;51.658;5.658;2023-07-31T12:15:33;100510.92;;;21.90;68.77
80699;BME280;70062;51.658;5.658;2023-07-31T12:17:59;100510.41;;;21.85;68.90
80699;BME280;70062;51.658;5.658;2023-07-31T12:20:25;100519.69;;;21.79;68.61
80699;BME280;70062;51.658;5.658;2023-07-31T12:22:50;100527.05;;;21.60;69.23
80699;BME280;70062;51.658;5.658;2023-07-31T12:25:16;100529.51;;;21.46;69.37
80699;BME280;70062;51.658;5.658;2023-07-31T12:27:44;100530.04;;;21.34;69.66
80699;BME280;70062;51.658;5.658;2023-07-31T12:30:33;100519.88;;;21.19;70.11
80699;BME280;70062;51.658;5.658;2023-07-31T12:33:14;100515.51;;;21.11;70.39
80699;BME280;70062;51.658;5.658;2023-07-31T12:35:42;100501.72;;;21.08;71.01
80699;BME280;70062;51.658;5.658;2023-07-31T12:38:08;100506.45;;;21.19;71.24
80699;BME280;70062;51.658;5.658;2023-07-31T12:40:37;100504.89;;;21.31;70.62
80699;BME280;70062;51.658;5.658;2023-07-31T12:43:02;100511.35;;;21.46;70.19
80699;BME280;70062;51.658;5.658;2023-07-31T12:45:29;100501.38;;;21.65;70.25
80699;BME280;70062;51.658;5.658;2023-07-31T12:47:54;100491.91;;;21.75;69.72
80699;BME280;70062;51.658;5.658;2023-07-31T12:50:20;100489.13;;;21.71;69.79
80699;BME280;70062;51.658;5.658;2023-07-31T12:52:45;100492.45;;;21.65;69.73
80699;BME280;70062;51.658;5.658;2023-07-31T12:55:10;100486.89;;;21.55;69.94
80699;BME280;70062;51.658;5.658;2023-07-31T12:57:36;100485.67;;;21.50;70.37
80699;BME280;70062;51.658;5.658;2023-07-31T13:00:03;100482.18;;;21.48;70.29